MST,Max TemperatureF,Mean TemperatureF,Min TemperatureF,Max Dew PointF,MeanDew PointF,Min DewpointF,Max Humidity, Mean Humidity, Min Humidity, Max Sea Level PressureIn, Mean Sea Level PressureIn, Min Sea Level PressureIn, Max VisibilityMiles, Mean VisibilityMiles, Min VisibilityMiles, Max Wind SpeedMPH, Mean Wind SpeedMPH, Max Gust SpeedMPH,PrecipitationIn, CloudCover, Events, WindDirDegrees
2013-11-1,49,40,30,35,33,28,100,75,50,30.37,30.27,30.19,10,7,0,16,7,21,0.00,5,Fog,216
2013-11-2,58,44,29,33,29,26,92,61,30,30.26,29.95,29.67,10,10,4,28,9,35,T,3,,214
2013-11-3,41,34,27,32,23,3,85,55,24,30.04,29.85,29.70,10,10,9,26,15,36,T,5,Rain-Snow,205
2013-11-4,37,30,23,20,18,10,88,62,35,30.17,30.06,29.96,10,10,7,20,9,26,0.00,5,,207
2013-11-5,34,27,20,27,19,14,92,68,43,30.39,30.28,30.14,10,9,2,18,9,24,0.02,7,Snow,202
2013-11-6,40,35,29,34,30,24,100,91,82,30.45,30.36,30.24,10,8,2,14,6,20,0.01,8,Rain-Snow,181
2013-11-7,47,41,35,37,33,29,92,75,58,30.41,30.21,29.83,10,10,8,16,7,24,0.12,8,Rain,196
2013-11-8,47,43,39,34,26,20,79,57,34,30.11,30.01,29.81,10,10,10,24,13,35,0.00,6,,213
2013-11-9,49,39,29,27,24,21,85,61,36,30.29,30.21,30.12,10,10,10,15,6,19,0.00,3,,205
2013-11-10,55,41,27,34,29,25,92,67,41,30.36,30.28,30.22,10,10,5,12,3,14,0.00,1,,26
2013-11-11,55,43,30,33,29,26,92,64,35,30.50,30.38,30.26,10,10,10,10,4,14,0.00,0,,63
2013-11-12,61,43,24,30,26,21,92,59,26,30.58,30.47,30.36,10,10,9,9,4,10,0.00,0,,44
2013-11-13,47,38,28,36,31,27,92,71,49,30.32,30.27,30.22,10,10,7,13,4,17,T,4,Rain,144
2013-11-14,44,36,27,32,29,25,92,73,53,30.26,30.09,29.83,10,10,9,14,5,18,0.00,3,,215
2013-11-15,35,31,26,29,25,20,100,76,52,29.85,29.76,29.59,10,7,0,25,10,36,T,6,Fog-Snow,209
2013-11-16,37,31,24,29,26,16,92,75,58,29.76,29.48,29.36,10,6,1,30,16,40,0.05,7,Snow,209
2013-11-17,40,32,23,25,22,17,88,70,52,30.17,30.02,29.79,10,10,10,24,11,30,0.00,4,,204
2013-11-18,46,35,24,29,26,21,88,69,49,30.23,30.12,29.93,10,10,10,9,4,14,0.00,0,,68
2013-11-19,43,38,32,36,33,28,85,71,57,29.91,29.87,29.83,10,10,10,21,13,31,0.01,7,Rain,203
2013-11-20,42,35,27,38,33,14,89,74,58,30.07,29.85,29.77,10,10,4,22,12,29,0.10,7,Rain,195
2013-11-21,32,23,13,14,7,1,80,54,28,30.66,30.40,30.09,10,10,10,25,11,32,0.00,0,,21
2013-11-22,37,23,9,18,10,4,84,58,32,30.73,30.65,30.58,10,10,10,9,5,11,0.00,0,,59
2013-11-23,45,29,12,19,14,9,88,58,27,30.62,30.48,30.32,10,10,10,8,3,10,0.00,0,,52
2013-11-24,36,25,13,21,15,9,88,66,44,30.39,30.33,30.27,10,10,10,6,1,7,0.00,1,,110
2013-11-25,40,29,17,22,19,14,92,66,40,30.56,30.47,30.35,10,10,6,8,2,11,0.00,1,,55
2013-11-26,45,31,16,24,19,13,92,66,40,30.59,30.48,30.35,10,10,9,8,3,9,0.00,0,,55
2013-11-27,48,34,20,26,21,17,92,65,37,30.33,30.25,30.17,10,10,10,7,3,9,0.00,0,,55
2013-11-28,48,34,19,25,21,16,91,63,34,30.26,30.21,30.14,10,10,7,6,2,7,0.00,0,,45
2013-11-29,45,32,18,25,21,15,92,69,45,30.40,30.33,30.24,10,10,10,12,4,17,0.00,0,,49
2013-11-30,42,32,22,31,27,19,92,74,55,30.41,30.31,30.24,10,10,10,18,7,23,T,5,Rain,196